No requereix especial atenci├│ pel que fa al clima.   -   No hi ha Alarmes

Resums METAR propers

 

LEBL - Barcelona Airpor, Spain
DistÓncia des de l'estaciˇ: SSE 30km
Actualitzaciˇ: 20/02/2018 00:30
Molt cobert
Molt cobert
 Vent del N
Vent: N 6 km/h
Temperatura: 11°C
Rosada: 8°C
Humitat: 82%
Bar˛metre: 1014 hPa
Nuvolositat: Molt cobert
Visibilitat: 10 km
Detalls nuvolositat: Alguns n˙vols 457 m
Parcialment cobert 671 m
Molt cobert 914 m
2018/02/19 23:30 LEBL 192330Z 36003KT 9999 FEW015 SCT022 BKN030 11/08 Q1014 NOSIG
LELL - Sabadell, Spain
DistÓncia des de l'estaciˇ: ONO 14km
Actualitzaciˇ: 20/02/2018 00:30
Tapat
Tapat
 Vent del O
Vent: O 4 km/h
Temperatura: 10°C
Rosada: 8°C
Humitat: 88%
Bar˛metre: 1014 hPa
Nuvolositat: Tapat
Visibilitat: 10 km
Detalls nuvolositat: Molt cobert 579 m
Tapat 823 m
2018/02/19 23:30 LELL 192330Z AUTO 27002KT 9999 BKN019/// OVC027/// 10/08 Q1014
 
LEGE - Girona/Costa Bra, Spain
DistÓncia des de l'estaciˇ: NE 65km
Actualitzaciˇ: 20/02/2018 00:30
Light drizzle, Molt cobert
Light drizzle, Molt cobert
 Vent del O
Vent: O 2 km/h
Temperatura: 8°C
Rosada: 8°C
Humitat: 100%
Bar˛metre: 1014 hPa
Resum: Light Drizzle
Nuvolositat: Molt cobert
Visibilitat: 10 km
Detalls nuvolositat: Molt cobert 1829 m
Molt cobert 2134 m
2018/02/19 23:30 LEGE 192330Z 28001KT 9999 -DZ BKN060 BKN070 08/08 Q1014
LERS - Reus (civ/Mil), Spain
DistÓncia des de l'estaciˇ: OSO 96km
Actualitzaciˇ: 20/02/2018 00:30
Parcialment cobert
Parcialment cobert
 Vent del NNE
Vent: NNE 4 km/h
Temperatura: 10°C
Rosada: 8°C
Humitat: 88%
Bar˛metre: 1014 hPa
Nuvolositat: Parcialment cobert
Visibilitat: 10 km
Detalls nuvolositat: Alguns n˙vols 396 m
Parcialment cobert 1036 m
2018/02/19 23:30 LERS 192330Z AUTO 02002KT 9999 FEW013/// SCT034/// 10/08 Q1014
 
LESU - Pirineus/La Seu, Spain
DistÓncia des de l'estaciˇ: NO 121km
Actualitzaciˇ: 19/02/2018 18:30
NO actualitzat
Parcialment cobert
Parcialment cobert
 Vent del SO
Vent: SO 9 km/h
Temperatura: 9°C
Sensaciˇ: 7°C
Rosada: 2°C
Humitat: 62%
Bar˛metre: 1013 hPa
Nuvolositat: Parcialment cobert
Visibilitat: 10 km
Detalls nuvolositat: Parcialment cobert 1859 m
2018/02/19 17:30 LESU 191730Z 23005KT 9999 SCT061 09/02 Q1013
LEDA - Lleida/Alguaire, Spain
DistÓncia des de l'estaciˇ: ONO 146km
Actualitzaciˇ: 18/02/2018 17:30
NO actualitzat
Alguns n˙vols
Alguns n˙vols
 Vent del O
Vent: O 9 km/h
Temperatura: 12°C
Rosada: 0°C
Humitat: 44%
Bar˛metre: 1019 hPa
Nuvolositat: Alguns n˙vols
Visibilitat: 10 km
Detalls nuvolositat: Alguns n˙vols 1067 m
2018/02/18 16:30 LEDA 181630Z 26005KT 9999 FEW035 12/M00 Q1019
 
LFMP - Perpignan/Rivesa, France
DistÓncia des de l'estaciˇ: NNE 150km
Actualitzaciˇ: 20/02/2018 00:30
Tapat
Tapat
 Vent del NO
Vent: NO 24 km/h
Temperatura: 11°C
Rosada: 5°C
Humitat: 67%
Bar˛metre: 1014 hPa
Nuvolositat: Tapat
Visibilitat: 10 km
Detalls nuvolositat: Tapat 2865 m
2018/02/19 23:30 LFMP 192330Z AUTO 31013KT 9999 OVC094 11/05 Q1014
LEPA - Palma De Mallorca, Spain
DistÓncia des de l'estaciˇ: S 216km
Actualitzaciˇ: 20/02/2018 00:30
Alguns n˙vols
Alguns n˙vols
 Vent del calm
Vent: Calma
Temperatura: 7°C
Rosada: 6°C
Humitat: 93%
Bar˛metre: 1015 hPa
Nuvolositat: Alguns n˙vols
Visibilitat: 10 km
Detalls nuvolositat: Alguns n˙vols 1067 m
2018/02/19 23:30 LEPA 192330Z 00000KT 9999 FEW035 07/06 Q1015 NOSIG